Time,TemperatureF,DewpointF,PressureIn,WindDirection,WindDirectionDegrees,WindSpeedMPH,WindSpeedGustMPH,Humidity,HourlyPrecipIn,Conditions,Clouds,dailyrainin,SolarRadiationWatts/m^2,SoftwareType,DateUTC
2013-04-06 00:02:00,47.0,34.0,-100.00,North,0,1.0,10.0,61,0.00,,,0.09,0.000000,,2013-04-06 06:02:00,
2013-04-06 00:12:00,47.0,34.0,-100.00,North,0,1.0,10.0,61,0.00,,,0.09,0.000000,,2013-04-06 06:12:00,
2013-04-06 00:22:00,47.0,34.0,-100.00,North,0,1.0,10.0,61,0.00,,,0.09,0.000000,,2013-04-06 06:22:00,
2013-04-06 00:32:00,47.0,34.0,-100.00,North,0,1.0,10.0,61,0.00,,,0.09,0.000000,,2013-04-06 06:32:00,
2013-04-06 00:42:00,47.0,35.0,-100.00,ENE,63,7.0,9.0,62,0.00,,,0.09,0.000000,,2013-04-06 06:42:00,
2013-04-06 01:03:00,47.0,35.0,-100.00,ENE,63,7.0,9.0,62,0.00,,,0.09,0.000000,,2013-04-06 07:03:00,
2013-04-06 01:12:00,47.0,35.0,-100.00,ENE,63,7.0,9.0,62,0.00,,,0.09,0.000000,,2013-04-06 07:12:00,
2013-04-06 01:22:00,47.0,35.0,-100.00,ENE,63,7.0,9.0,62,0.00,,,0.09,0.000000,,2013-04-06 07:22:00,
2013-04-06 01:32:00,47.0,35.0,-100.00,ENE,63,7.0,9.0,62,0.00,,,0.09,0.000000,,2013-04-06 07:32:00,
2013-04-06 01:42:00,44.0,37.0,-100.00,SE,132,2.0,9.0,77,0.00,,,0.09,0.000000,,2013-04-06 07:42:00,
2013-04-06 02:02:00,44.0,37.0,-100.00,SE,132,2.0,9.0,77,0.00,,,0.09,0.000000,,2013-04-06 08:02:00,
2013-04-06 02:12:00,44.0,37.0,-100.00,SE,132,2.0,9.0,77,0.00,,,0.09,0.000000,,2013-04-06 08:12:00,
2013-04-06 02:22:00,44.0,37.0,-100.00,SE,132,2.0,9.0,77,0.00,,,0.09,0.000000,,2013-04-06 08:22:00,
2013-04-06 02:32:00,44.0,37.0,-100.00,SE,132,2.0,9.0,77,0.00,,,0.09,0.000000,,2013-04-06 08:32:00,
2013-04-06 02:42:00,45.0,39.0,-100.00,SSE,157,5.0,9.0,79,0.01,,,0.10,0.000000,,2013-04-06 08:42:00,
2013-04-06 03:12:00,45.0,39.0,-100.00,SSE,157,5.0,9.0,79,0.01,,,0.10,0.000000,,2013-04-06 09:12:00,
2013-04-06 03:22:00,45.0,39.0,-100.00,SSE,157,5.0,9.0,79,0.01,,,0.10,0.000000,,2013-04-06 09:22:00,
2013-04-06 03:32:00,45.0,39.0,-100.00,SSE,157,5.0,9.0,79,0.01,,,0.10,0.000000,,2013-04-06 09:32:00,
2013-04-06 03:42:00,43.0,40.0,-100.00,SE,146,6.0,9.0,89,0.03,,,0.13,0.000000,,2013-04-06 09:42:00,
2013-04-06 04:03:00,43.0,40.0,-100.00,SE,146,6.0,9.0,89,0.03,,,0.13,0.000000,,2013-04-06 10:03:00,
2013-04-06 04:12:00,43.0,40.0,-100.00,SE,146,6.0,9.0,89,0.03,,,0.13,0.000000,,2013-04-06 10:12:00,
2013-04-06 04:22:00,43.0,40.0,-100.00,SE,146,6.0,9.0,89,0.03,,,0.13,0.000000,,2013-04-06 10:22:00,
2013-04-06 04:32:00,43.0,40.0,-100.00,SE,146,6.0,9.0,89,0.03,,,0.13,0.000000,,2013-04-06 10:32:00,
2013-04-06 05:02:00,43.0,41.0,-100.00,SE,145,5.0,11.0,92,0.02,,,0.10,0.000000,,2013-04-06 11:02:00,
2013-04-06 05:12:00,43.0,41.0,-100.00,SE,145,5.0,11.0,92,0.02,,,0.10,0.000000,,2013-04-06 11:12:00,
2013-04-06 05:22:00,43.0,41.0,-100.00,SE,145,5.0,11.0,92,0.02,,,0.10,0.000000,,2013-04-06 11:22:00,
2013-04-06 05:32:00,43.0,41.0,-100.00,SE,145,5.0,11.0,92,0.02,,,0.10,0.000000,,2013-04-06 11:32:00,
2013-04-06 05:42:00,43.0,41.0,-100.00,SSW,194,1.0,7.0,94,0.01,,,0.09,0.000000,,2013-04-06 11:42:00,
2013-04-06 06:02:00,43.0,41.0,-100.00,SSW,194,1.0,7.0,94,0.01,,,0.09,0.000000,,2013-04-06 12:02:00,
2013-04-06 06:12:00,43.0,41.0,-100.00,SSW,194,1.0,7.0,94,0.01,,,0.09,0.000000,,2013-04-06 12:12:00,
2013-04-06 06:22:00,43.0,41.0,-100.00,SSW,194,1.0,7.0,94,0.01,,,0.09,0.000000,,2013-04-06 12:22:00,
2013-04-06 06:32:00,43.0,41.0,-100.00,SSW,194,1.0,7.0,94,0.01,,,0.09,0.000000,,2013-04-06 12:32:00,
2013-04-06 06:42:00,43.0,41.0,-100.00,SSE,164,3.0,6.0,94,0.00,,,0.09,0.000000,,2013-04-06 12:42:00,
2013-04-06 07:02:00,43.0,41.0,-100.00,SSE,164,3.0,6.0,94,0.00,,,0.09,0.000000,,2013-04-06 13:02:00,
2013-04-06 07:12:00,43.0,41.0,-100.00,SSE,164,3.0,6.0,94,0.00,,,0.09,0.000000,,2013-04-06 13:12:00,
2013-04-06 07:23:00,43.0,41.0,-100.00,SSE,164,3.0,6.0,94,0.00,,,0.09,0.000000,,2013-04-06 13:23:00,
2013-04-06 07:32:00,43.0,41.0,-100.00,SSE,164,3.0,6.0,94,0.00,,,0.09,0.000000,,2013-04-06 13:32:00,
2013-04-06 07:42:00,43.0,41.0,-100.00,SSE,155,5.0,8.0,92,0.00,,,0.09,3.000000,,2013-04-06 13:42:00,
2013-04-06 08:03:00,43.0,41.0,-100.00,SSE,155,5.0,8.0,92,0.00,,,0.09,3.000000,,2013-04-06 14:03:00,
2013-04-06 08:12:00,43.0,41.0,-100.00,SSE,155,5.0,8.0,92,0.00,,,0.09,3.000000,,2013-04-06 14:12:00,
2013-04-06 08:22:00,43.0,41.0,-100.00,SSE,155,5.0,8.0,92,0.00,,,0.09,3.000000,,2013-04-06 14:22:00,
2013-04-06 08:32:00,43.0,41.0,-100.00,SSE,155,5.0,8.0,92,0.00,,,0.09,3.000000,,2013-04-06 14:32:00,
2013-04-06 08:42:00,44.0,41.0,-100.00,SSE,167,4.0,11.0,88,0.00,,,0.09,43.000000,,2013-04-06 14:42:00,
2013-04-06 09:02:00,44.0,41.0,-100.00,SSE,167,4.0,11.0,88,0.00,,,0.09,43.000000,,2013-04-06 15:02:00,
2013-04-06 09:12:00,44.0,41.0,-100.00,SSE,167,4.0,11.0,88,0.00,,,0.09,43.000000,,2013-04-06 15:12:00,
2013-04-06 09:22:00,44.0,41.0,-100.00,SSE,167,4.0,11.0,88,0.00,,,0.09,43.000000,,2013-04-06 15:22:00,
2013-04-06 09:33:00,44.0,41.0,-100.00,SSE,167,4.0,11.0,88,0.00,,,0.09,43.000000,,2013-04-06 15:33:00,
2013-04-06 09:42:00,44.0,40.0,-100.00,South,170,8.0,15.0,87,0.00,,,0.09,76.000000,,2013-04-06 15:42:00,
2013-04-06 10:04:00,44.0,40.0,-100.00,South,170,8.0,15.0,87,0.00,,,0.09,76.000000,,2013-04-06 16:04:00,
2013-04-06 10:17:00,44.0,40.0,-100.00,South,170,8.0,15.0,87,0.00,,,0.09,76.000000,,2013-04-06 16:17:00,
2013-04-06 10:23:00,44.0,40.0,-100.00,South,170,8.0,15.0,87,0.00,,,0.09,76.000000,,2013-04-06 16:23:00,
2013-04-06 10:32:00,44.0,40.0,-100.00,South,170,8.0,15.0,87,0.00,,,0.09,76.000000,,2013-04-06 16:32:00,
2013-04-06 10:42:00,46.0,41.0,-100.00,South,187,12.0,19.0,81,0.01,,,0.10,188.000000,,2013-04-06 16:42:00,
2013-04-06 11:02:00,46.0,41.0,-100.00,South,187,12.0,19.0,81,0.01,,,0.10,188.000000,,2013-04-06 17:02:00,
2013-04-06 11:12:00,46.0,41.0,-100.00,South,187,12.0,19.0,81,0.01,,,0.10,188.000000,,2013-04-06 17:12:00,
2013-04-06 11:22:00,46.0,41.0,-100.00,South,187,12.0,19.0,81,0.01,,,0.10,188.000000,,2013-04-06 17:22:00,
2013-04-06 11:32:00,46.0,41.0,-100.00,South,187,12.0,19.0,81,0.01,,,0.10,188.000000,,2013-04-06 17:32:00,
2013-04-06 11:42:00,47.0,39.0,-100.00,SSW,193,11.0,20.0,74,0.00,,,0.08,205.000000,,2013-04-06 17:42:00,
2013-04-06 12:02:00,47.0,39.0,-100.00,SSW,193,11.0,20.0,74,0.00,,,0.08,205.000000,,2013-04-06 18:02:00,
2013-04-06 12:12:00,47.0,39.0,-100.00,SSW,193,11.0,20.0,74,0.00,,,0.08,205.000000,,2013-04-06 18:12:00,
2013-04-06 12:23:00,47.0,39.0,-100.00,SSW,193,11.0,20.0,74,0.00,,,0.08,205.000000,,2013-04-06 18:23:00,
2013-04-06 12:32:00,47.0,39.0,-100.00,SSW,193,11.0,20.0,74,0.00,,,0.08,205.000000,,2013-04-06 18:32:00,
2013-04-06 12:42:00,46.0,40.0,-100.00,WSW,237,5.0,21.0,79,0.01,,,0.09,138.000000,,2013-04-06 18:42:00,
2013-04-06 13:02:00,46.0,40.0,-100.00,WSW,237,5.0,21.0,79,0.01,,,0.09,138.000000,,2013-04-06 19:02:00,
2013-04-06 13:12:00,46.0,40.0,-100.00,WSW,237,5.0,21.0,79,0.01,,,0.09,138.000000,,2013-04-06 19:12:00,
2013-04-06 13:22:00,46.0,40.0,-100.00,WSW,237,5.0,21.0,79,0.01,,,0.09,138.000000,,2013-04-06 19:22:00,
2013-04-06 13:32:00,46.0,40.0,-100.00,WSW,237,5.0,21.0,79,0.01,,,0.09,138.000000,,2013-04-06 19:32:00,
2013-04-06 13:42:00,46.0,38.0,-100.00,SE,136,9.0,19.0,73,0.01,,,0.10,270.000000,,2013-04-06 19:42:00,
2013-04-06 14:02:00,46.0,38.0,-100.00,SE,136,9.0,19.0,73,0.01,,,0.10,270.000000,,2013-04-06 20:02:00,
2013-04-06 14:12:00,46.0,38.0,-100.00,SE,136,9.0,19.0,73,0.01,,,0.10,270.000000,,2013-04-06 20:12:00,
2013-04-06 14:22:00,46.0,38.0,-100.00,SE,136,9.0,19.0,73,0.01,,,0.10,270.000000,,2013-04-06 20:22:00,
2013-04-06 14:32:00,46.0,38.0,-100.00,SE,136,9.0,19.0,73,0.01,,,0.10,270.000000,,2013-04-06 20:32:00,
2013-04-06 14:42:00,50.0,40.0,-100.00,SSE,168,13.0,21.0,68,0.00,,,0.10,773.000000,,2013-04-06 20:42:00,
2013-04-06 15:02:00,50.0,40.0,-100.00,SSE,168,13.0,21.0,68,0.00,,,0.10,773.000000,,2013-04-06 21:02:00,
2013-04-06 15:13:00,50.0,40.0,-100.00,SSE,168,13.0,21.0,68,0.00,,,0.10,773.000000,,2013-04-06 21:13:00,
2013-04-06 15:22:00,50.0,40.0,-100.00,SSE,168,13.0,21.0,68,0.00,,,0.10,773.000000,,2013-04-06 21:22:00,
2013-04-06 15:33:00,50.0,40.0,-100.00,SSE,168,13.0,21.0,68,0.00,,,0.10,773.000000,,2013-04-06 21:33:00,
2013-04-06 15:42:00,46.0,39.0,-100.00,SSW,195,16.0,23.0,76,0.00,,,0.10,309.000000,,2013-04-06 21:42:00,
2013-04-06 16:03:00,46.0,39.0,-100.00,SSW,195,16.0,23.0,76,0.00,,,0.10,309.000000,,2013-04-06 22:03:00,
2013-04-06 16:13:00,46.0,39.0,-100.00,SSW,195,16.0,23.0,76,0.00,,,0.10,309.000000,,2013-04-06 22:13:00,
2013-04-06 16:22:00,46.0,39.0,-100.00,SSW,195,16.0,23.0,76,0.00,,,0.10,309.000000,,2013-04-06 22:22:00,
2013-04-06 16:33:00,46.0,39.0,-100.00,SSW,195,16.0,23.0,76,0.00,,,0.10,309.000000,,2013-04-06 22:33:00,
2013-04-06 16:42:00,47.0,41.0,-100.00,SSE,168,6.0,18.0,79,0.05,,,0.15,213.000000,,2013-04-06 22:42:00,
2013-04-06 17:03:00,47.0,41.0,-100.00,SSE,168,6.0,18.0,79,0.05,,,0.15,213.000000,,2013-04-06 23:03:00,
2013-04-06 17:13:00,47.0,41.0,-100.00,SSE,168,6.0,18.0,79,0.05,,,0.15,213.000000,,2013-04-06 23:13:00,
2013-04-06 17:22:00,47.0,41.0,-100.00,SSE,168,6.0,18.0,79,0.05,,,0.15,213.000000,,2013-04-06 23:22:00,
2013-04-06 17:33:00,47.0,41.0,-100.00,SSE,168,6.0,18.0,79,0.05,,,0.15,213.000000,,2013-04-06 23:33:00,
2013-04-06 17:42:00,48.0,40.0,-100.00,SE,143,3.0,17.0,74,0.00,,,0.15,183.000000,,2013-04-06 23:42:00,
2013-04-06 18:02:00,48.0,40.0,-100.00,SE,143,3.0,17.0,74,0.00,,,0.15,183.000000,,2013-04-07 00:02:00,
2013-04-06 18:12:00,48.0,40.0,-100.00,SE,143,3.0,17.0,74,0.00,,,0.15,183.000000,,2013-04-07 00:12:00,
2013-04-06 18:22:00,48.0,40.0,-100.00,SE,143,3.0,17.0,74,0.00,,,0.15,183.000000,,2013-04-07 00:22:00,
2013-04-06 18:32:00,48.0,40.0,-100.00,SE,143,3.0,17.0,74,0.00,,,0.15,183.000000,,2013-04-07 00:32:00,
2013-04-06 18:42:00,51.0,38.0,-100.00,SSW,193,1.0,10.0,61,0.00,,,0.15,334.000000,,2013-04-07 00:42:00,
2013-04-06 19:02:00,51.0,38.0,-100.00,SSW,193,1.0,10.0,61,0.00,,,0.15,334.000000,,2013-04-07 01:02:00,
2013-04-06 19:12:00,51.0,38.0,-100.00,SSW,193,1.0,10.0,61,0.00,,,0.15,334.000000,,2013-04-07 01:12:00,
2013-04-06 19:22:00,51.0,38.0,-100.00,SSW,193,1.0,10.0,61,0.00,,,0.15,334.000000,,2013-04-07 01:22:00,
2013-04-06 19:32:00,51.0,38.0,-100.00,SSW,193,1.0,10.0,61,0.00,,,0.15,334.000000,,2013-04-07 01:32:00,
2013-04-06 19:42:00,49.0,38.0,-100.00,SSW,209,2.0,5.0,66,0.00,,,0.15,95.000000,,2013-04-07 01:42:00,
2013-04-06 20:02:00,49.0,38.0,-100.00,SSW,209,2.0,5.0,66,0.00,,,0.15,95.000000,,2013-04-07 02:02:00,
2013-04-06 20:12:00,49.0,38.0,-100.00,SSW,209,2.0,5.0,66,0.00,,,0.15,95.000000,,2013-04-07 02:12:00,
2013-04-06 20:22:00,49.0,38.0,-100.00,SSW,209,2.0,5.0,66,0.00,,,0.15,95.000000,,2013-04-07 02:22:00,
2013-04-06 20:32:00,49.0,38.0,-100.00,SSW,209,2.0,5.0,66,0.00,,,0.15,95.000000,,2013-04-07 02:32:00,
2013-04-06 20:42:00,44.0,38.0,-100.00,ENE,78,5.0,16.0,78,0.00,,,0.15,11.000000,,2013-04-07 02:42:00,
2013-04-06 21:02:00,44.0,38.0,-100.00,ENE,78,5.0,16.0,78,0.00,,,0.15,11.000000,,2013-04-07 03:02:00,
2013-04-06 21:12:00,44.0,38.0,-100.00,ENE,78,5.0,16.0,78,0.00,,,0.15,11.000000,,2013-04-07 03:12:00,
2013-04-06 21:22:00,44.0,38.0,-100.00,ENE,78,5.0,16.0,78,0.00,,,0.15,11.000000,,2013-04-07 03:22:00,
2013-04-06 21:33:00,44.0,38.0,-100.00,ENE,78,5.0,16.0,78,0.00,,,0.15,11.000000,,2013-04-07 03:33:00,
2013-04-06 21:42:00,43.0,38.0,-100.00,ENE,74,5.0,9.0,83,0.00,,,0.15,0.000000,,2013-04-07 03:42:00,
2013-04-06 22:03:00,43.0,38.0,-100.00,ENE,74,5.0,9.0,83,0.00,,,0.15,0.000000,,2013-04-07 04:03:00,
2013-04-06 22:13:00,43.0,38.0,-100.00,ENE,74,5.0,9.0,83,0.00,,,0.15,0.000000,,2013-04-07 04:13:00,
2013-04-06 22:23:00,43.0,38.0,-100.00,ENE,74,5.0,9.0,83,0.00,,,0.15,0.000000,,2013-04-07 04:23:00,
2013-04-06 22:32:00,43.0,38.0,-100.00,ENE,74,5.0,9.0,83,0.00,,,0.15,0.000000,,2013-04-07 04:32:00,
2013-04-06 22:42:00,43.0,38.0,-100.00,NNE,27,2.0,9.0,81,0.01,,,0.16,0.000000,,2013-04-07 04:42:00,
2013-04-06 23:02:00,43.0,38.0,-100.00,NNE,27,2.0,9.0,81,0.01,,,0.16,0.000000,,2013-04-07 05:02:00,
2013-04-06 23:12:00,43.0,38.0,-100.00,NNE,27,2.0,9.0,81,0.01,,,0.16,0.000000,,2013-04-07 05:12:00,
2013-04-06 23:22:00,43.0,38.0,-100.00,NNE,27,2.0,9.0,81,0.01,,,0.16,0.000000,,2013-04-07 05:22:00,
2013-04-06 23:32:00,43.0,38.0,-100.00,NNE,27,2.0,9.0,81,0.01,,,0.16,0.000000,,2013-04-07 05:32:00,
2013-04-06 23:42:00,42.0,40.0,-100.00,West,274,1.0,6.0,93,0.05,,,0.21,0.000000,,2013-04-07 05:42:00,